createdAt,value
2022-10-09T00:01:51.379Z,10.41
2022-10-09T00:04:39.472Z,10.41
2022-10-09T00:07:27.570Z,10.37
2022-10-09T00:10:15.656Z,10.36
2022-10-09T00:13:03.938Z,10.36
2022-10-09T00:15:52.122Z,10.36
2022-10-09T00:18:40.652Z,10.37
2022-10-09T00:21:31.564Z,10.41
2022-10-09T00:24:21.103Z,10.43
2022-10-09T00:27:09.177Z,10.39
2022-10-09T00:29:57.667Z,10.36
2022-10-09T00:32:45.686Z,10.35
2022-10-09T00:35:33.648Z,10.36
2022-10-09T00:38:21.745Z,10.36
2022-10-09T00:41:14.581Z,10.40
2022-10-09T00:44:23.857Z,10.40
2022-10-09T00:47:19.576Z,10.37
2022-10-09T00:50:10.651Z,10.34
2022-10-09T00:53:00.723Z,10.30
2022-10-09T00:55:49.825Z,10.25
2022-10-09T00:58:37.617Z,10.20
2022-10-09T01:01:25.901Z,10.19
2022-10-09T01:04:14.584Z,10.19
2022-10-09T01:07:23.143Z,10.22
2022-10-09T01:10:30.369Z,10.21
2022-10-09T01:13:44.505Z,10.18
2022-10-09T01:16:39.533Z,10.15
2022-10-09T01:19:53.064Z,10.11
2022-10-09T01:23:03.704Z,10.12
2022-10-09T01:26:02.131Z,10.08
2022-10-09T01:28:56.565Z,10.10
2022-10-09T01:31:48.614Z,10.05
2022-10-09T01:34:39.269Z,10.08
2022-10-09T01:37:30.559Z,10.05
2022-10-09T01:40:18.964Z,10.02
2022-10-09T01:43:06.962Z,9.98
2022-10-09T01:46:26.871Z,9.98
2022-10-09T01:49:40.398Z,9.96
2022-10-09T01:52:53.799Z,9.94
2022-10-09T01:55:52.705Z,9.84
2022-10-09T01:58:48.934Z,9.79
2022-10-09T02:01:39.757Z,9.79
2022-10-09T02:04:30.129Z,9.79
2022-10-09T02:07:18.373Z,9.73
2022-10-09T02:10:08.284Z,9.77
2022-10-09T02:12:58.973Z,9.77
2022-10-09T02:15:55.722Z,9.71
2022-10-09T02:18:46.712Z,9.70
2022-10-09T02:22:04.831Z,9.69
2022-10-09T02:24:53.044Z,9.68
2022-10-09T02:27:41.196Z,9.68
2022-10-09T02:30:39.384Z,9.69
2022-10-09T02:33:31.689Z,9.73
2022-10-09T02:36:19.326Z,9.71
2022-10-09T02:39:08.190Z,9.72
2022-10-09T02:41:55.978Z,9.70
2022-10-09T02:44:44.042Z,9.74
2022-10-09T02:47:32.506Z,9.81
2022-10-09T02:50:20.349Z,9.85
2022-10-09T02:53:08.313Z,9.89
2022-10-09T02:55:56.240Z,9.91
2022-10-09T02:58:44.430Z,9.95
2022-10-09T03:01:32.407Z,9.96
2022-10-09T03:04:20.537Z,9.96
2022-10-09T03:07:08.492Z,9.98
2022-10-09T03:09:57.392Z,9.98
2022-10-09T03:12:45.588Z,9.96
2022-10-09T03:15:39.475Z,9.96
2022-10-09T03:18:27.327Z,9.93
2022-10-09T03:21:20.511Z,9.94
2022-10-09T03:24:09.873Z,9.91
2022-10-09T03:26:58.210Z,9.92
2022-10-09T03:29:46.126Z,9.91
2022-10-09T03:32:34.057Z,9.88
2022-10-09T03:35:21.948Z,9.84
2022-10-09T03:38:10.084Z,9.80
2022-10-09T03:41:02.408Z,9.80
2022-10-09T03:43:50.600Z,9.79
2022-10-09T03:46:38.925Z,9.77
2022-10-09T03:49:27.359Z,9.78
2022-10-09T03:52:15.454Z,9.80
2022-10-09T03:55:04.324Z,9.81
2022-10-09T03:57:52.397Z,9.82
2022-10-09T04:00:41.784Z,9.82
2022-10-09T04:03:29.978Z,9.79
2022-10-09T04:06:18.395Z,9.82
2022-10-09T04:09:06.847Z,9.82
2022-10-09T04:11:54.821Z,9.81
2022-10-09T04:14:42.804Z,9.82
2022-10-09T04:17:31.072Z,9.83
2022-10-09T04:20:20.931Z,9.87
2022-10-09T04:23:08.961Z,9.90
2022-10-09T04:25:59.601Z,9.94
2022-10-09T04:28:47.773Z,9.99
2022-10-09T04:31:35.835Z,10.03
2022-10-09T04:34:24.129Z,10.11
2022-10-09T04:37:12.064Z,10.17
2022-10-09T04:40:00.173Z,10.22
2022-10-09T04:42:48.306Z,10.27
2022-10-09T04:45:40.990Z,10.33
2022-10-09T04:48:29.010Z,10.40
2022-10-09T04:51:18.392Z,10.48
2022-10-09T04:54:06.473Z,10.54
2022-10-09T04:56:54.339Z,10.62
2022-10-09T04:59:42.283Z,10.74
2022-10-09T05:02:31.672Z,10.83
2022-10-09T05:05:19.554Z,10.94
2022-10-09T05:08:07.837Z,11.04
2022-10-09T05:11:03.522Z,11.16
2022-10-09T05:13:56.024Z,11.28
2022-10-09T05:17:08.132Z,11.36
2022-10-09T05:19:51.966Z,11.50
2022-10-09T05:22:40.148Z,11.64
2022-10-09T05:25:28.080Z,11.79
2022-10-09T05:28:15.966Z,11.92
2022-10-09T05:31:05.014Z,12.06
2022-10-09T05:33:53.605Z,12.16
2022-10-09T05:36:41.507Z,12.22
2022-10-09T05:39:29.860Z,12.27
2022-10-09T05:42:17.521Z,12.29
2022-10-09T05:45:05.960Z,12.32
2022-10-09T05:47:53.834Z,12.38
2022-10-09T05:50:42.282Z,12.47
2022-10-09T05:53:30.272Z,12.57
2022-10-09T05:56:21.440Z,12.70
2022-10-09T05:59:21.286Z,12.76
2022-10-09T06:02:09.657Z,12.83
2022-10-09T06:05:00.072Z,12.90
2022-10-09T06:07:50.183Z,12.95
2022-10-09T06:10:38.102Z,13.00
2022-10-09T06:13:26.714Z,13.04
2022-10-09T06:16:17.522Z,13.10
2022-10-09T06:19:13.249Z,13.16
2022-10-09T06:22:01.161Z,13.29
2022-10-09T06:24:49.118Z,13.40
2022-10-09T06:27:37.225Z,13.51
2022-10-09T06:30:25.082Z,13.60
2022-10-09T06:33:13.417Z,13.66
2022-10-09T06:36:10.707Z,13.67
2022-10-09T06:39:06.141Z,13.70
2022-10-09T06:41:57.858Z,13.70
2022-10-09T06:45:00.911Z,13.63
2022-10-09T06:47:48.827Z,13.63
2022-10-09T06:50:54.735Z,13.66
2022-10-09T06:53:56.160Z,13.64
2022-10-09T06:56:49.898Z,13.64
2022-10-09T06:59:43.247Z,13.60
2022-10-09T07:02:34.503Z,13.62
2022-10-09T07:05:22.376Z,13.58
2022-10-09T07:08:10.353Z,13.54
2022-10-09T07:10:57.960Z,13.53
2022-10-09T07:13:45.787Z,13.50
2022-10-09T07:16:36.957Z,13.54
2022-10-09T07:19:25.162Z,13.58
2022-10-09T07:22:13.093Z,13.67
2022-10-09T07:25:01.279Z,13.71
2022-10-09T07:27:50.756Z,13.71
2022-10-09T07:30:39.051Z,13.70
2022-10-09T07:33:36.107Z,13.73
2022-10-09T07:36:24.013Z,13.78
2022-10-09T07:39:14.334Z,13.84
2022-10-09T07:42:03.101Z,13.89
2022-10-09T07:44:50.702Z,13.97
2022-10-09T07:47:38.672Z,14.01
2022-10-09T07:50:26.620Z,14.07
2022-10-09T07:53:14.406Z,14.17
2022-10-09T07:56:02.534Z,14.27
2022-10-09T07:58:52.246Z,14.36
2022-10-09T08:01:41.064Z,14.44
2022-10-09T08:04:29.097Z,14.56
2022-10-09T08:07:17.119Z,14.62
2022-10-09T08:10:05.854Z,14.73
2022-10-09T08:12:53.633Z,14.79
2022-10-09T08:49:37.243Z,15.36
2022-10-09T08:52:35.664Z,15.43
2022-10-09T08:55:36.135Z,15.51
2022-10-09T08:58:29.481Z,15.58
2022-10-09T09:01:39.741Z,15.64
2022-10-09T09:04:54.555Z,15.71
2022-10-09T09:08:09.312Z,15.82
2022-10-09T09:11:21.939Z,15.90
2022-10-09T09:14:40.481Z,15.95
2022-10-09T09:17:58.398Z,15.97
2022-10-09T09:21:24.374Z,16.06
2022-10-09T09:24:42.156Z,16.17
2022-10-09T09:27:41.952Z,16.32
2022-10-09T09:30:40.448Z,16.45
2022-10-09T09:33:41.053Z,16.52
2022-10-09T09:36:49.977Z,16.55
2022-10-09T09:43:06.289Z,16.71
2022-10-09T09:45:58.204Z,16.80
2022-10-09T09:48:50.226Z,16.91
2022-10-09T09:51:44.420Z,17.03
2022-10-09T09:54:32.366Z,17.25
2022-10-09T09:57:35.212Z,17.39
2022-10-09T10:03:50.292Z,17.66
2022-10-09T10:06:47.041Z,17.86
2022-10-09T10:09:34.705Z,18.00
2022-10-09T10:12:22.549Z,18.14
2022-10-09T10:15:29.049Z,18.26
2022-10-09T10:18:18.269Z,18.37
2022-10-09T10:21:12.524Z,18.41
2022-10-09T10:24:03.640Z,18.42
2022-10-09T10:26:57.944Z,18.49
2022-10-09T10:29:58.144Z,18.67
2022-10-09T10:33:08.147Z,18.87
2022-10-09T10:35:58.011Z,19.01
2022-10-09T10:39:13.544Z,19.06
2022-10-09T10:42:06.498Z,19.24
2022-10-09T10:45:06.641Z,19.37
2022-10-09T10:47:57.782Z,19.39
2022-10-09T10:51:02.268Z,19.36
2022-10-09T10:54:09.072Z,19.32
2022-10-09T10:57:04.083Z,19.27
2022-10-09T10:59:55.143Z,19.29
2022-10-09T11:02:51.315Z,19.33
2022-10-09T11:06:06.404Z,19.34
2022-10-09T11:09:07.293Z,19.28
2022-10-09T11:12:43.722Z,19.46
2022-10-09T11:15:54.270Z,19.66
2022-10-09T11:18:51.011Z,19.69
2022-10-09T11:22:07.389Z,19.72
2022-10-09T11:24:57.686Z,19.63
2022-10-09T11:27:55.873Z,19.49
2022-10-09T11:30:50.474Z,19.43
2022-10-09T11:34:03.122Z,19.48
2022-10-09T11:36:51.217Z,19.52
2022-10-09T11:39:39.970Z,19.52
2022-10-09T11:42:29.176Z,19.53
2022-10-09T11:45:27.526Z,19.55
2022-10-09T11:48:33.646Z,19.47
2022-10-09T11:51:34.775Z,19.47
2022-10-09T11:54:27.409Z,19.40
2022-10-09T11:57:26.293Z,19.29
2022-10-09T12:00:14.934Z,19.24
2022-10-09T12:03:06.367Z,19.24
2022-10-09T12:06:07.773Z,19.12
2022-10-09T12:09:03.508Z,18.99
2022-10-09T12:12:07.739Z,18.88
2022-10-09T12:14:55.451Z,18.83
2022-10-09T12:17:48.335Z,18.77
2022-10-09T12:20:37.639Z,18.69
2022-10-09T12:23:30.093Z,18.62
2022-10-09T12:26:21.282Z,18.60
2022-10-09T12:29:19.172Z,18.48
2022-10-09T12:32:15.859Z,18.39
2022-10-09T12:35:37.272Z,18.26
2022-10-09T12:38:27.941Z,18.16
2022-10-09T12:41:29.410Z,18.08
2022-10-09T12:44:51.474Z,17.99
2022-10-09T12:47:39.238Z,17.95
2022-10-09T12:50:32.287Z,17.90
2022-10-09T12:53:23.915Z,17.84
2022-10-09T12:56:12.918Z,17.80
2022-10-09T12:59:01.693Z,17.78
2022-10-09T13:01:52.606Z,17.73
2022-10-09T13:04:41.166Z,17.67
2022-10-09T13:07:30.576Z,17.61
2022-10-09T13:10:22.508Z,17.60
2022-10-09T13:13:20.244Z,17.56
2022-10-09T13:16:10.937Z,17.39
2022-10-09T13:19:04.337Z,17.03
2022-10-09T13:22:22.164Z,16.59
2022-10-09T13:25:09.935Z,16.22
2022-10-09T13:27:58.305Z,15.99
2022-10-09T13:30:47.018Z,15.75
2022-10-09T13:33:34.716Z,15.58
2022-10-09T13:36:22.486Z,15.43
2022-10-09T13:39:17.084Z,15.30
2022-10-09T13:42:04.974Z,15.19
2022-10-09T13:44:52.981Z,15.04
2022-10-09T13:47:40.811Z,14.90
2022-10-09T13:50:28.458Z,14.80
2022-10-09T13:53:16.486Z,14.75
2022-10-09T13:56:04.564Z,14.64
2022-10-09T13:58:52.416Z,14.51
2022-10-09T14:01:40.170Z,14.43
2022-10-09T14:04:29.475Z,14.39
2022-10-09T14:07:17.368Z,14.34
2022-10-09T14:10:06.030Z,14.33
2022-10-09T14:12:54.108Z,14.37
2022-10-09T14:15:42.044Z,14.38
2022-10-09T14:18:30.220Z,14.29
2022-10-09T14:21:17.822Z,14.18
2022-10-09T14:24:05.865Z,14.12
2022-10-09T14:26:53.801Z,14.09
2022-10-09T14:29:42.154Z,14.06
2022-10-09T14:32:29.809Z,14.02
2022-10-09T14:35:20.587Z,13.96
2022-10-09T14:38:12.329Z,13.95
2022-10-09T14:41:00.697Z,13.95
2022-10-09T14:43:56.255Z,13.90
2022-10-09T14:46:44.151Z,13.79
2022-10-09T14:49:32.456Z,13.58
2022-10-09T14:52:20.211Z,13.41
2022-10-09T14:55:08.568Z,13.23
2022-10-09T14:57:56.467Z,13.02
2022-10-09T15:00:47.909Z,12.79
2022-10-09T15:03:36.006Z,12.62
2022-10-09T15:06:28.022Z,12.60
2022-10-09T15:09:15.620Z,12.60
2022-10-09T15:12:03.637Z,12.60
2022-10-09T15:14:51.614Z,12.60
2022-10-09T15:17:39.982Z,12.57
2022-10-09T15:20:27.750Z,12.57
2022-10-09T15:23:15.439Z,12.59
2022-10-09T15:26:03.687Z,12.57
2022-10-09T15:28:51.662Z,12.59
2022-10-09T15:31:41.089Z,12.56
2022-10-09T15:34:29.387Z,12.54
2022-10-09T15:37:17.595Z,12.55
2022-10-09T15:40:05.498Z,12.56
2022-10-09T15:42:53.488Z,12.55
2022-10-09T15:45:41.507Z,12.57
2022-10-09T15:48:29.658Z,12.58
2022-10-09T15:51:17.805Z,12.59
2022-10-09T15:54:06.450Z,12.59
2022-10-09T15:56:54.709Z,12.60
2022-10-09T15:59:42.827Z,12.63
2022-10-09T16:02:30.688Z,12.66
2022-10-09T16:05:22.948Z,12.64
2022-10-09T16:08:12.073Z,12.65
2022-10-09T16:11:00.215Z,12.65
2022-10-09T16:13:48.243Z,12.65
2022-10-09T16:16:36.140Z,12.62
2022-10-09T16:19:25.026Z,12.60
2022-10-09T16:22:12.990Z,12.58
2022-10-09T16:25:00.864Z,12.53
2022-10-09T16:27:48.800Z,12.50
2022-10-09T16:30:44.280Z,12.51
2022-10-09T16:33:32.776Z,12.51
2022-10-09T16:36:20.549Z,12.49
2022-10-09T16:39:08.438Z,12.50
2022-10-09T16:41:58.001Z,12.51
2022-10-09T16:44:45.688Z,12.51
2022-10-09T16:47:34.097Z,12.53
2022-10-09T16:50:22.486Z,12.54
2022-10-09T16:53:10.790Z,12.52
2022-10-09T16:56:06.960Z,12.50
2022-10-09T16:58:57.351Z,12.46
2022-10-09T17:01:47.031Z,12.46
2022-10-09T17:04:35.923Z,12.47
2022-10-09T17:07:37.329Z,12.42
2022-10-09T17:10:31.141Z,12.35
2022-10-09T17:13:19.557Z,12.35
2022-10-09T17:16:12.223Z,12.31
2022-10-09T17:19:03.997Z,12.28
2022-10-09T17:21:52.038Z,12.24
2022-10-09T17:24:40.068Z,12.20
2022-10-09T17:27:27.863Z,12.17
2022-10-09T17:30:16.031Z,12.14
2022-10-09T17:33:04.126Z,12.11
2022-10-09T17:35:52.076Z,12.11
2022-10-09T17:38:40.427Z,12.09
2022-10-09T17:41:29.207Z,12.10
2022-10-09T17:44:17.272Z,12.10
2022-10-09T17:47:06.485Z,12.13
2022-10-09T17:49:55.320Z,12.13
2022-10-09T17:52:43.543Z,12.13
2022-10-09T17:55:32.156Z,12.13
2022-10-09T17:58:22.513Z,12.12
2022-10-09T18:01:11.640Z,12.14
2022-10-09T18:03:59.867Z,12.16
2022-10-09T18:06:50.039Z,12.16
2022-10-09T18:09:38.850Z,12.17
2022-10-09T18:12:26.580Z,12.17
2022-10-09T18:15:14.229Z,12.19
2022-10-09T18:18:02.105Z,12.18
2022-10-09T18:20:50.302Z,12.20
2022-10-09T18:23:38.776Z,12.26
2022-10-09T18:26:26.808Z,12.25
2022-10-09T18:29:14.836Z,12.25
2022-10-09T18:32:02.840Z,12.26
2022-10-09T18:34:50.489Z,12.29
2022-10-09T18:37:46.389Z,12.31
2022-10-09T18:40:45.737Z,12.35
2022-10-09T18:43:34.424Z,12.35
2022-10-09T18:46:26.014Z,12.37
2022-10-09T18:49:17.234Z,12.40
2022-10-09T18:52:05.398Z,12.39
2022-10-09T18:54:55.069Z,12.43
2022-10-09T18:57:42.962Z,12.45
2022-10-09T19:00:31.882Z,12.45
2022-10-09T19:03:19.527Z,12.44
2022-10-09T19:06:07.395Z,12.43
2022-10-09T19:08:57.922Z,12.41
2022-10-09T19:11:45.945Z,12.39
2022-10-09T19:14:35.192Z,12.39
2022-10-09T19:17:26.099Z,12.37
2022-10-09T19:20:15.328Z,12.32
2022-10-09T19:23:03.507Z,12.34
2022-10-09T19:25:53.794Z,12.33
2022-10-09T19:28:42.070Z,12.32
2022-10-09T19:31:31.341Z,12.32
2022-10-09T19:34:18.898Z,12.32
2022-10-09T19:37:06.782Z,12.32
2022-10-09T19:39:54.937Z,12.33
2022-10-09T19:42:42.515Z,12.34
2022-10-09T19:45:31.413Z,12.38
2022-10-09T19:48:20.416Z,12.37
2022-10-09T19:51:11.731Z,12.40
2022-10-09T19:54:01.834Z,12.39
2022-10-09T19:56:49.863Z,12.40
2022-10-09T19:59:37.636Z,12.43
2022-10-09T20:02:25.912Z,12.45
2022-10-09T20:05:13.636Z,12.46
2022-10-09T20:08:01.500Z,12.48
2022-10-09T20:10:49.535Z,12.46
2022-10-09T20:13:38.406Z,12.47
2022-10-09T20:16:29.824Z,12.47
2022-10-09T20:19:17.558Z,12.45
2022-10-09T20:22:05.382Z,12.44
2022-10-09T20:24:53.527Z,12.42
2022-10-09T20:27:41.433Z,12.40
2022-10-09T20:30:29.201Z,12.38
2022-10-09T20:33:16.768Z,12.36
2022-10-09T20:36:06.040Z,12.38
2022-10-09T20:38:59.213Z,12.40
2022-10-09T20:41:47.811Z,12.43
2022-10-09T20:44:35.383Z,12.44
2022-10-09T20:47:23.483Z,12.46
2022-10-09T20:50:11.709Z,12.46
2022-10-09T20:53:00.452Z,12.45
2022-10-09T20:55:48.256Z,12.45
2022-10-09T20:58:36.859Z,12.46
2022-10-09T21:01:25.175Z,12.48
2022-10-09T21:04:12.882Z,12.47
2022-10-09T21:07:00.715Z,12.46
2022-10-09T21:09:48.911Z,12.49
2022-10-09T21:12:36.746Z,12.53
2022-10-09T21:15:24.979Z,12.53
2022-10-09T21:18:13.589Z,12.50
2022-10-09T21:21:07.290Z,12.48
2022-10-09T21:23:57.452Z,12.49
2022-10-09T21:26:47.234Z,12.47
2022-10-09T21:29:35.328Z,12.49
2022-10-09T21:32:22.943Z,12.54
2022-10-09T21:35:10.817Z,12.59
2022-10-09T21:37:58.806Z,12.59
2022-10-09T21:40:49.262Z,12.56
2022-10-09T21:43:37.083Z,12.53
2022-10-09T21:46:25.403Z,12.43
2022-10-09T21:49:20.183Z,12.36
2022-10-09T21:52:08.304Z,12.30
2022-10-09T21:54:55.879Z,12.30
2022-10-09T21:57:45.240Z,12.33
2022-10-09T22:00:33.241Z,12.40
2022-10-09T22:03:21.288Z,12.38
2022-10-09T22:06:17.738Z,12.35
2022-10-09T22:09:07.091Z,12.32
2022-10-09T22:11:56.780Z,12.31
2022-10-09T22:14:44.796Z,12.36
2022-10-09T22:17:32.691Z,12.37
2022-10-09T22:20:20.689Z,12.31
2022-10-09T22:23:09.675Z,12.20
2022-10-09T22:25:59.856Z,12.05
2022-10-09T22:28:49.108Z,11.98
2022-10-09T22:31:36.908Z,11.97
2022-10-09T22:34:24.766Z,12.04
2022-10-09T22:37:12.864Z,11.99
2022-10-09T22:40:00.449Z,12.00
2022-10-09T22:42:48.434Z,12.02
2022-10-09T22:45:39.241Z,12.04
2022-10-09T22:48:27.073Z,12.06
2022-10-09T22:51:17.254Z,12.08
2022-10-09T22:54:06.223Z,12.09
2022-10-09T22:56:53.847Z,12.10
2022-10-09T22:59:41.823Z,12.09
2022-10-09T23:02:29.758Z,12.08
2022-10-09T23:05:17.881Z,12.10
2022-10-09T23:08:05.809Z,12.10
2022-10-09T23:10:53.422Z,12.08
2022-10-09T23:13:41.567Z,12.07
2022-10-09T23:16:30.836Z,12.01
2022-10-09T23:19:18.822Z,12.01
2022-10-09T23:22:06.647Z,11.97
2022-10-09T23:24:54.192Z,11.97
2022-10-09T23:27:41.754Z,11.93
2022-10-09T23:30:30.776Z,11.90
2022-10-09T23:33:18.604Z,11.87
2022-10-09T23:36:07.748Z,11.87
2022-10-09T23:38:56.218Z,11.83
2022-10-09T23:41:44.185Z,11.82
2022-10-09T23:44:32.056Z,11.78
2022-10-09T23:47:19.873Z,11.76
2022-10-09T23:50:08.168Z,11.77
2022-10-09T23:52:56.210Z,11.77
2022-10-09T23:55:44.522Z,11.79
2022-10-09T23:58:32.156Z,11.79
